sensor_id;sensor_type;location;lat;lon;timestamp;P1;durP1;ratioP1;P2;durP2;ratioP2
45893;SDS011;31603;51.148;16.932;2023-07-31T00:00:23;6.30;;;3.28;;
45893;SDS011;31603;51.148;16.932;2023-07-31T00:02:49;9.63;;;3.00;;
45893;SDS011;31603;51.148;16.932;2023-07-31T00:05:15;5.90;;;3.72;;
45893;SDS011;31603;51.148;16.932;2023-07-31T00:07:41;4.55;;;3.67;;
45893;SDS011;31603;51.148;16.932;2023-07-31T00:10:08;5.72;;;3.30;;
45893;SDS011;31603;51.148;16.932;2023-07-31T00:12:35;4.57;;;3.20;;
45893;SDS011;31603;51.148;16.932;2023-07-31T00:15:04;7.35;;;3.40;;
45893;SDS011;31603;51.148;16.932;2023-07-31T00:17:31;6.60;;;3.30;;
45893;SDS011;31603;51.148;16.932;2023-07-31T00:19:59;7.72;;;3.53;;
45893;SDS011;31603;51.148;16.932;2023-07-31T00:22:26;12.30;;;4.20;;
45893;SDS011;31603;51.148;16.932;2023-07-31T00:24:52;5.70;;;3.55;;
45893;SDS011;31603;51.148;16.932;2023-07-31T00:27:18;6.32;;;3.47;;
45893;SDS011;31603;51.148;16.932;2023-07-31T00:29:44;6.95;;;3.97;;
45893;SDS011;31603;51.148;16.932;2023-07-31T00:32:12;4.63;;;3.15;;
45893;SDS011;31603;51.148;16.932;2023-07-31T00:34:39;6.35;;;3.55;;
45893;SDS011;31603;51.148;16.932;2023-07-31T00:37:06;5.35;;;3.70;;
45893;SDS011;31603;51.148;16.932;2023-07-31T00:39:33;5.10;;;3.65;;
45893;SDS011;31603;51.148;16.932;2023-07-31T00:42:00;7.43;;;3.63;;
45893;SDS011;31603;51.148;16.932;2023-07-31T00:44:26;8.05;;;4.07;;
45893;SDS011;31603;51.148;16.932;2023-07-31T00:46:52;7.60;;;3.63;;
45893;SDS011;31603;51.148;16.932;2023-07-31T00:49:21;9.15;;;4.10;;
45893;SDS011;31603;51.148;16.932;2023-07-31T00:51:47;11.20;;;4.47;;
45893;SDS011;31603;51.148;16.932;2023-07-31T00:54:14;11.15;;;3.97;;
45893;SDS011;31603;51.148;16.932;2023-07-31T00:56:40;7.72;;;4.80;;
45893;SDS011;31603;51.148;16.932;2023-07-31T00:59:08;6.20;;;3.70;;
45893;SDS011;31603;51.148;16.932;2023-07-31T01:01:34;5.03;;;3.88;;
45893;SDS011;31603;51.148;16.932;2023-07-31T01:04:00;7.70;;;4.22;;
45893;SDS011;31603;51.148;16.932;2023-07-31T01:06:30;6.88;;;4.28;;
45893;SDS011;31603;51.148;16.932;2023-07-31T01:08:58;10.43;;;4.15;;
45893;SDS011;31603;51.148;16.932;2023-07-31T01:11:28;6.75;;;3.47;;
45893;SDS011;31603;51.148;16.932;2023-07-31T01:13:55;10.00;;;3.75;;
45893;SDS011;31603;51.148;16.932;2023-07-31T01:16:23;5.07;;;3.05;;
45893;SDS011;31603;51.148;16.932;2023-07-31T01:18:52;5.47;;;3.25;;
45893;SDS011;31603;51.148;16.932;2023-07-31T01:21:21;7.35;;;4.15;;
45893;SDS011;31603;51.148;16.932;2023-07-31T01:24:00;9.70;;;3.60;;
45893;SDS011;31603;51.148;16.932;2023-07-31T01:26:36;7.82;;;3.17;;
45893;SDS011;31603;51.148;16.932;2023-07-31T01:29:09;16.40;;;3.83;;
45893;SDS011;31603;51.148;16.932;2023-07-31T01:31:36;7.45;;;3.10;;
45893;SDS011;31603;51.148;16.932;2023-07-31T01:34:02;5.72;;;3.20;;
45893;SDS011;31603;51.148;16.932;2023-07-31T01:36:29;6.28;;;3.58;;
45893;SDS011;31603;51.148;16.932;2023-07-31T01:38:58;6.70;;;2.80;;
45893;SDS011;31603;51.148;16.932;2023-07-31T01:41:24;8.40;;;3.15;;
45893;SDS011;31603;51.148;16.932;2023-07-31T01:43:51;7.13;;;3.10;;
45893;SDS011;31603;51.148;16.932;2023-07-31T01:46:18;7.07;;;3.42;;
45893;SDS011;31603;51.148;16.932;2023-07-31T01:48:44;9.10;;;3.80;;
45893;SDS011;31603;51.148;16.932;2023-07-31T01:51:10;9.23;;;3.20;;
45893;SDS011;31603;51.148;16.932;2023-07-31T01:53:36;7.00;;;3.50;;
45893;SDS011;31603;51.148;16.932;2023-07-31T01:56:03;7.82;;;3.75;;
45893;SDS011;31603;51.148;16.932;2023-07-31T01:58:29;8.35;;;3.00;;
45893;SDS011;31603;51.148;16.932;2023-07-31T02:00:57;9.90;;;3.80;;
45893;SDS011;31603;51.148;16.932;2023-07-31T02:03:23;11.23;;;3.97;;
45893;SDS011;31603;51.148;16.932;2023-07-31T02:05:49;10.32;;;3.60;;
45893;SDS011;31603;51.148;16.932;2023-07-31T02:08:17;8.45;;;3.50;;
45893;SDS011;31603;51.148;16.932;2023-07-31T02:10:44;8.23;;;2.95;;
45893;SDS011;31603;51.148;16.932;2023-07-31T02:13:10;5.47;;;3.10;;
45893;SDS011;31603;51.148;16.932;2023-07-31T02:15:37;6.72;;;3.30;;
45893;SDS011;31603;51.148;16.932;2023-07-31T02:18:04;9.88;;;3.25;;
45893;SDS011;31603;51.148;16.932;2023-07-31T02:20:33;10.90;;;3.20;;
45893;SDS011;31603;51.148;16.932;2023-07-31T02:22:59;6.88;;;3.38;;
45893;SDS011;31603;51.148;16.932;2023-07-31T02:25:25;8.25;;;3.03;;
45893;SDS011;31603;51.148;16.932;2023-07-31T02:27:51;10.77;;;3.30;;
45893;SDS011;31603;51.148;16.932;2023-07-31T02:30:18;9.52;;;2.95;;
45893;SDS011;31603;51.148;16.932;2023-07-31T02:32:44;10.00;;;3.10;;
45893;SDS011;31603;51.148;16.932;2023-07-31T02:35:12;8.43;;;3.22;;
45893;SDS011;31603;51.148;16.932;2023-07-31T02:37:40;5.30;;;2.47;;
45893;SDS011;31603;51.148;16.932;2023-07-31T02:40:07;10.25;;;2.90;;
45893;SDS011;31603;51.148;16.932;2023-07-31T02:42:33;10.57;;;3.13;;
45893;SDS011;31603;51.148;16.932;2023-07-31T02:45:01;8.95;;;3.50;;
45893;SDS011;31603;51.148;16.932;2023-07-31T02:47:27;8.88;;;3.58;;
45893;SDS011;31603;51.148;16.932;2023-07-31T02:49:53;6.80;;;2.80;;
45893;SDS011;31603;51.148;16.932;2023-07-31T02:52:22;8.90;;;2.95;;
45893;SDS011;31603;51.148;16.932;2023-07-31T02:54:48;6.00;;;3.33;;
45893;SDS011;31603;51.148;16.932;2023-07-31T02:57:14;8.95;;;3.58;;
45893;SDS011;31603;51.148;16.932;2023-07-31T02:59:41;6.93;;;2.78;;
45893;SDS011;31603;51.148;16.932;2023-07-31T03:02:07;9.43;;;3.08;;
45893;SDS011;31603;51.148;16.932;2023-07-31T03:04:34;8.45;;;3.35;;
45893;SDS011;31603;51.148;16.932;2023-07-31T03:07:00;10.07;;;2.85;;
45893;SDS011;31603;51.148;16.932;2023-07-31T03:09:27;8.95;;;3.10;;
45893;SDS011;31603;51.148;16.932;2023-07-31T03:11:54;7.47;;;3.65;;
45893;SDS011;31603;51.148;16.932;2023-07-31T03:14:21;8.27;;;3.05;;
45893;SDS011;31603;51.148;16.932;2023-07-31T03:16:51;7.88;;;3.17;;
45893;SDS011;31603;51.148;16.932;2023-07-31T03:19:17;14.00;;;4.32;;
45893;SDS011;31603;51.148;16.932;2023-07-31T03:21:46;8.32;;;3.70;;
45893;SDS011;31603;51.148;16.932;2023-07-31T03:24:12;9.27;;;3.80;;
45893;SDS011;31603;51.148;16.932;2023-07-31T03:26:41;9.65;;;3.78;;
45893;SDS011;31603;51.148;16.932;2023-07-31T03:29:08;12.20;;;4.65;;
45893;SDS011;31603;51.148;16.932;2023-07-31T03:31:34;9.88;;;4.20;;
45893;SDS011;31603;51.148;16.932;2023-07-31T03:34:00;11.07;;;4.20;;
45893;SDS011;31603;51.148;16.932;2023-07-31T03:36:27;11.18;;;3.97;;
45893;SDS011;31603;51.148;16.932;2023-07-31T03:38:54;7.38;;;3.50;;
45893;SDS011;31603;51.148;16.932;2023-07-31T03:41:21;6.90;;;3.83;;
45893;SDS011;31603;51.148;16.932;2023-07-31T03:43:49;7.22;;;3.17;;
45893;SDS011;31603;51.148;16.932;2023-07-31T03:46:16;9.02;;;3.80;;
45893;SDS011;31603;51.148;16.932;2023-07-31T03:48:44;6.45;;;3.60;;
45893;SDS011;31603;51.148;16.932;2023-07-31T03:51:12;11.23;;;3.85;;
45893;SDS011;31603;51.148;16.932;2023-07-31T03:53:39;11.40;;;3.65;;
45893;SDS011;31603;51.148;16.932;2023-07-31T03:56:05;11.95;;;4.00;;
45893;SDS011;31603;51.148;16.932;2023-07-31T03:58:31;11.10;;;4.00;;
45893;SDS011;31603;51.148;16.932;2023-07-31T04:01:00;8.45;;;3.42;;
45893;SDS011;31603;51.148;16.932;2023-07-31T04:03:28;10.45;;;3.58;;
45893;SDS011;31603;51.148;16.932;2023-07-31T04:05:54;11.13;;;3.67;;
45893;SDS011;31603;51.148;16.932;2023-07-31T04:08:20;10.43;;;3.35;;
45893;SDS011;31603;51.148;16.932;2023-07-31T04:10:47;7.35;;;3.47;;
45893;SDS011;31603;51.148;16.932;2023-07-31T04:13:13;5.90;;;3.10;;
45893;SDS011;31603;51.148;16.932;2023-07-31T04:15:40;11.35;;;3.40;;
45893;SDS011;31603;51.148;16.932;2023-07-31T04:18:08;11.80;;;3.60;;
45893;SDS011;31603;51.148;16.932;2023-07-31T04:20:34;15.70;;;3.58;;
45893;SDS011;31603;51.148;16.932;2023-07-31T04:23:00;7.55;;;3.20;;
45893;SDS011;31603;51.148;16.932;2023-07-31T04:25:28;10.82;;;3.03;;
45893;SDS011;31603;51.148;16.932;2023-07-31T04:27:57;10.52;;;3.78;;
45893;SDS011;31603;51.148;16.932;2023-07-31T04:30:24;11.75;;;3.58;;
45893;SDS011;31603;51.148;16.932;2023-07-31T04:32:51;11.20;;;3.95;;
45893;SDS011;31603;51.148;16.932;2023-07-31T04:35:19;7.00;;;3.33;;
45893;SDS011;31603;51.148;16.932;2023-07-31T04:37:46;6.97;;;3.25;;
45893;SDS011;31603;51.148;16.932;2023-07-31T04:40:13;9.65;;;2.80;;
45893;SDS011;31603;51.148;16.932;2023-07-31T04:42:40;9.20;;;3.00;;
45893;SDS011;31603;51.148;16.932;2023-07-31T04:45:08;8.30;;;2.92;;
45893;SDS011;31603;51.148;16.932;2023-07-31T04:47:34;6.13;;;2.60;;
45893;SDS011;31603;51.148;16.932;2023-07-31T04:50:00;10.20;;;2.50;;
45893;SDS011;31603;51.148;16.932;2023-07-31T04:52:29;6.65;;;3.13;;
45893;SDS011;31603;51.148;16.932;2023-07-31T04:54:56;10.93;;;3.33;;
45893;SDS011;31603;51.148;16.932;2023-07-31T04:57:22;5.55;;;2.50;;
45893;SDS011;31603;51.148;16.932;2023-07-31T04:59:49;8.95;;;3.10;;
45893;SDS011;31603;51.148;16.932;2023-07-31T05:02:15;7.47;;;3.30;;
45893;SDS011;31603;51.148;16.932;2023-07-31T05:04:41;9.60;;;3.67;;
45893;SDS011;31603;51.148;16.932;2023-07-31T05:07:09;8.20;;;4.22;;
45893;SDS011;31603;51.148;16.932;2023-07-31T05:09:37;10.68;;;3.15;;
45893;SDS011;31603;51.148;16.932;2023-07-31T05:12:04;5.57;;;3.30;;
45893;SDS011;31603;51.148;16.932;2023-07-31T05:14:31;8.15;;;3.80;;
45893;SDS011;31603;51.148;16.932;2023-07-31T05:16:57;8.23;;;3.90;;
45893;SDS011;31603;51.148;16.932;2023-07-31T05:19:24;7.65;;;3.72;;
45893;SDS011;31603;51.148;16.932;2023-07-31T05:21:54;7.18;;;4.03;;
45893;SDS011;31603;51.148;16.932;2023-07-31T05:24:21;7.68;;;3.47;;
45893;SDS011;31603;51.148;16.932;2023-07-31T05:26:48;11.85;;;3.47;;
45893;SDS011;31603;51.148;16.932;2023-07-31T05:29:16;9.35;;;4.20;;
45893;SDS011;31603;51.148;16.932;2023-07-31T05:31:42;9.18;;;4.18;;
45893;SDS011;31603;51.148;16.932;2023-07-31T05:34:08;7.35;;;3.70;;
45893;SDS011;31603;51.148;16.932;2023-07-31T05:36:35;7.30;;;3.05;;
45893;SDS011;31603;51.148;16.932;2023-07-31T05:39:08;8.20;;;3.78;;
45893;SDS011;31603;51.148;16.932;2023-07-31T05:41:35;7.75;;;3.90;;
45893;SDS011;31603;51.148;16.932;2023-07-31T05:44:03;5.68;;;3.03;;
45893;SDS011;31603;51.148;16.932;2023-07-31T05:46:32;6.28;;;3.35;;
45893;SDS011;31603;51.148;16.932;2023-07-31T05:48:58;9.88;;;3.67;;
45893;SDS011;31603;51.148;16.932;2023-07-31T05:51:25;8.02;;;2.80;;
45893;SDS011;31603;51.148;16.932;2023-07-31T05:53:52;39.70;;;6.10;;
45893;SDS011;31603;51.148;16.932;2023-07-31T05:56:18;31.17;;;4.95;;
45893;SDS011;31603;51.148;16.932;2023-07-31T05:58:44;9.40;;;2.65;;
45893;SDS011;31603;51.148;16.932;2023-07-31T06:01:12;3.92;;;1.98;;
45893;SDS011;31603;51.148;16.932;2023-07-31T06:03:38;4.95;;;2.47;;
45893;SDS011;31603;51.148;16.932;2023-07-31T06:06:09;6.68;;;2.13;;
45893;SDS011;31603;51.148;16.932;2023-07-31T06:08:37;9.52;;;2.45;;
45893;SDS011;31603;51.148;16.932;2023-07-31T06:11:03;4.85;;;2.45;;
45893;SDS011;31603;51.148;16.932;2023-07-31T06:13:29;5.30;;;1.90;;
45893;SDS011;31603;51.148;16.932;2023-07-31T06:15:57;4.97;;;2.15;;
45893;SDS011;31603;51.148;16.932;2023-07-31T06:18:25;4.38;;;1.65;;
45893;SDS011;31603;51.148;16.932;2023-07-31T06:20:51;8.05;;;1.90;;
45893;SDS011;31603;51.148;16.932;2023-07-31T06:23:18;6.57;;;2.35;;
45893;SDS011;31603;51.148;16.932;2023-07-31T06:25:45;6.35;;;1.77;;
45893;SDS011;31603;51.148;16.932;2023-07-31T06:28:11;3.88;;;1.70;;
45893;SDS011;31603;51.148;16.932;2023-07-31T06:30:38;4.97;;;2.28;;
45893;SDS011;31603;51.148;16.932;2023-07-31T06:33:06;4.88;;;1.65;;
45893;SDS011;31603;51.148;16.932;2023-07-31T06:35:35;7.25;;;1.73;;
45893;SDS011;31603;51.148;16.932;2023-07-31T06:38:01;6.30;;;1.90;;
45893;SDS011;31603;51.148;16.932;2023-07-31T06:40:38;4.65;;;1.95;;
45893;SDS011;31603;51.148;16.932;2023-07-31T06:43:05;5.38;;;2.03;;
45893;SDS011;31603;51.148;16.932;2023-07-31T06:45:33;6.43;;;1.77;;
45893;SDS011;31603;51.148;16.932;2023-07-31T06:47:59;6.90;;;1.98;;
45893;SDS011;31603;51.148;16.932;2023-07-31T06:50:26;4.72;;;1.75;;
45893;SDS011;31603;51.148;16.932;2023-07-31T06:52:54;5.88;;;1.90;;
45893;SDS011;31603;51.148;16.932;2023-07-31T06:55:20;4.80;;;1.73;;
45893;SDS011;31603;51.148;16.932;2023-07-31T06:57:49;4.95;;;2.15;;
45893;SDS011;31603;51.148;16.932;2023-07-31T07:00:18;5.25;;;1.92;;
45893;SDS011;31603;51.148;16.932;2023-07-31T07:02:45;3.83;;;1.70;;
45893;SDS011;31603;51.148;16.932;2023-07-31T07:05:12;5.00;;;1.63;;
45893;SDS011;31603;51.148;16.932;2023-07-31T07:07:38;4.47;;;1.58;;
45893;SDS011;31603;51.148;16.932;2023-07-31T07:10:09;5.45;;;2.03;;
45893;SDS011;31603;51.148;16.932;2023-07-31T07:12:39;4.13;;;1.63;;
45893;SDS011;31603;51.148;16.932;2023-07-31T07:15:06;4.78;;;1.50;;
45893;SDS011;31603;51.148;16.932;2023-07-31T07:17:32;3.15;;;1.65;;
45893;SDS011;31603;51.148;16.932;2023-07-31T07:19:58;5.35;;;1.83;;
45893;SDS011;31603;51.148;16.932;2023-07-31T07:22:26;3.03;;;1.60;;
45893;SDS011;31603;51.148;16.932;2023-07-31T07:24:52;7.68;;;2.10;;
45893;SDS011;31603;51.148;16.932;2023-07-31T07:27:20;3.65;;;1.48;;
45893;SDS011;31603;51.148;16.932;2023-07-31T07:29:46;4.45;;;1.80;;
45893;SDS011;31603;51.148;16.932;2023-07-31T07:32:13;4.53;;;1.45;;
45893;SDS011;31603;51.148;16.932;2023-07-31T07:34:39;4.03;;;1.35;;
45893;SDS011;31603;51.148;16.932;2023-07-31T07:37:05;5.32;;;1.65;;
45893;SDS011;31603;51.148;16.932;2023-07-31T07:39:32;5.13;;;1.20;;
45893;SDS011;31603;51.148;16.932;2023-07-31T07:41:58;5.22;;;1.80;;
45893;SDS011;31603;51.148;16.932;2023-07-31T07:44:25;3.58;;;1.38;;
45893;SDS011;31603;51.148;16.932;2023-07-31T07:46:52;6.47;;;1.60;;
45893;SDS011;31603;51.148;16.932;2023-07-31T07:49:20;6.18;;;1.30;;
45893;SDS011;31603;51.148;16.932;2023-07-31T07:51:47;3.60;;;1.35;;
45893;SDS011;31603;51.148;16.932;2023-07-31T07:54:13;3.30;;;1.27;;
45893;SDS011;31603;51.148;16.932;2023-07-31T07:56:41;2.70;;;1.27;;
45893;SDS011;31603;51.148;16.932;2023-07-31T07:59:09;5.85;;;1.33;;
45893;SDS011;31603;51.148;16.932;2023-07-31T08:01:37;4.18;;;1.55;;
45893;SDS011;31603;51.148;16.932;2023-07-31T08:04:03;3.17;;;1.00;;
45893;SDS011;31603;51.148;16.932;2023-07-31T08:06:29;4.95;;;1.10;;
45893;SDS011;31603;51.148;16.932;2023-07-31T08:08:56;6.63;;;1.30;;
45893;SDS011;31603;51.148;16.932;2023-07-31T08:11:22;2.88;;;1.48;;
45893;SDS011;31603;51.148;16.932;2023-07-31T08:13:49;3.08;;;1.23;;
45893;SDS011;31603;51.148;16.932;2023-07-31T08:16:18;4.38;;;1.10;;
45893;SDS011;31603;51.148;16.932;2023-07-31T08:18:46;2.42;;;1.13;;
45893;SDS011;31603;51.148;16.932;2023-07-31T08:21:13;3.53;;;1.40;;
45893;SDS011;31603;51.148;16.932;2023-07-31T08:23:40;4.43;;;1.35;;
45893;SDS011;31603;51.148;16.932;2023-07-31T08:26:07;6.80;;;1.58;;
45893;SDS011;31603;51.148;16.932;2023-07-31T08:28:33;3.28;;;1.20;;
45893;SDS011;31603;51.148;16.932;2023-07-31T08:31:02;4.43;;;1.40;;
45893;SDS011;31603;51.148;16.932;2023-07-31T08:33:29;3.30;;;1.30;;
45893;SDS011;31603;51.148;16.932;2023-07-31T08:35:57;4.93;;;1.40;;
45893;SDS011;31603;51.148;16.932;2023-07-31T08:38:25;3.70;;;1.45;;
45893;SDS011;31603;51.148;16.932;2023-07-31T08:40:56;4.95;;;1.35;;
45893;SDS011;31603;51.148;16.932;2023-07-31T08:43:22;5.93;;;1.30;;
45893;SDS011;31603;51.148;16.932;2023-07-31T08:45:51;3.35;;;1.45;;
45893;SDS011;31603;51.148;16.932;2023-07-31T08:48:18;6.53;;;1.52;;
45893;SDS011;31603;51.148;16.932;2023-07-31T08:50:45;4.90;;;1.52;;
45893;SDS011;31603;51.148;16.932;2023-07-31T08:53:12;4.05;;;1.60;;
45893;SDS011;31603;51.148;16.932;2023-07-31T08:55:39;5.22;;;1.60;;
45893;SDS011;31603;51.148;16.932;2023-07-31T08:58:05;3.67;;;1.70;;
45893;SDS011;31603;51.148;16.932;2023-07-31T09:00:32;5.53;;;1.90;;
45893;SDS011;31603;51.148;16.932;2023-07-31T09:03:02;5.45;;;1.73;;
45893;SDS011;31603;51.148;16.932;2023-07-31T09:05:29;3.80;;;1.73;;
45893;SDS011;31603;51.148;16.932;2023-07-31T09:07:56;6.43;;;2.10;;
45893;SDS011;31603;51.148;16.932;2023-07-31T09:10:24;5.32;;;1.80;;
45893;SDS011;31603;51.148;16.932;2023-07-31T09:12:50;5.65;;;1.95;;
45893;SDS011;31603;51.148;16.932;2023-07-31T09:15:17;5.15;;;1.83;;
45893;SDS011;31603;51.148;16.932;2023-07-31T09:17:44;6.85;;;2.22;;
45893;SDS011;31603;51.148;16.932;2023-07-31T09:20:14;8.05;;;2.92;;
45893;SDS011;31603;51.148;16.932;2023-07-31T09:22:40;4.68;;;2.38;;
45893;SDS011;31603;51.148;16.932;2023-07-31T09:25:15;4.43;;;2.40;;
45893;SDS011;31603;51.148;16.932;2023-07-31T09:27:47;4.60;;;2.05;;
45893;SDS011;31603;51.148;16.932;2023-07-31T09:30:16;4.68;;;2.50;;
45893;SDS011;31603;51.148;16.932;2023-07-31T09:32:43;6.95;;;2.60;;
45893;SDS011;31603;51.148;16.932;2023-07-31T09:35:13;5.18;;;2.05;;
45893;SDS011;31603;51.148;16.932;2023-07-31T09:37:40;3.97;;;2.38;;
45893;SDS011;31603;51.148;16.932;2023-07-31T09:40:07;4.18;;;2.60;;
45893;SDS011;31603;51.148;16.932;2023-07-31T09:42:34;8.93;;;2.40;;
45893;SDS011;31603;51.148;16.932;2023-07-31T09:45:08;4.63;;;2.17;;
45893;SDS011;31603;51.148;16.932;2023-07-31T09:47:34;3.30;;;2.35;;
45893;SDS011;31603;51.148;16.932;2023-07-31T09:50:07;4.25;;;2.38;;
45893;SDS011;31603;51.148;16.932;2023-07-31T09:52:34;5.65;;;2.30;;
45893;SDS011;31603;51.148;16.932;2023-07-31T09:55:00;4.32;;;2.40;;
45893;SDS011;31603;51.148;16.932;2023-07-31T09:57:26;5.75;;;2.30;;
45893;SDS011;31603;51.148;16.932;2023-07-31T09:59:53;5.72;;;2.33;;
45893;SDS011;31603;51.148;16.932;2023-07-31T10:02:21;4.63;;;1.77;;
45893;SDS011;31603;51.148;16.932;2023-07-31T10:04:48;3.90;;;2.00;;
45893;SDS011;31603;51.148;16.932;2023-07-31T10:07:17;5.25;;;2.05;;
45893;SDS011;31603;51.148;16.932;2023-07-31T10:09:44;3.95;;;1.55;;
45893;SDS011;31603;51.148;16.932;2023-07-31T10:12:12;4.15;;;1.92;;
45893;SDS011;31603;51.148;16.932;2023-07-31T10:14:40;5.32;;;2.17;;
45893;SDS011;31603;51.148;16.932;2023-07-31T10:17:07;3.72;;;2.00;;
45893;SDS011;31603;51.148;16.932;2023-07-31T10:19:37;3.83;;;1.80;;
45893;SDS011;31603;51.148;16.932;2023-07-31T10:22:05;7.30;;;1.88;;
45893;SDS011;31603;51.148;16.932;2023-07-31T10:24:34;2.72;;;2.10;;
45893;SDS011;31603;51.148;16.932;2023-07-31T10:27:01;4.97;;;2.05;;
45893;SDS011;31603;51.148;16.932;2023-07-31T10:29:28;4.20;;;1.80;;
45893;SDS011;31603;51.148;16.932;2023-07-31T10:31:56;5.03;;;1.73;;
45893;SDS011;31603;51.148;16.932;2023-07-31T10:34:24;4.82;;;1.60;;
45893;SDS011;31603;51.148;16.932;2023-07-31T10:36:57;3.72;;;1.80;;
45893;SDS011;31603;51.148;16.932;2023-07-31T10:39:45;4.32;;;1.90;;
45893;SDS011;31603;51.148;16.932;2023-07-31T10:42:20;3.92;;;1.60;;
45893;SDS011;31603;51.148;16.932;2023-07-31T10:44:54;4.63;;;1.65;;
45893;SDS011;31603;51.148;16.932;2023-07-31T10:47:21;4.35;;;1.63;;
45893;SDS011;31603;51.148;16.932;2023-07-31T10:49:47;2.60;;;1.40;;
45893;SDS011;31603;51.148;16.932;2023-07-31T10:52:19;2.75;;;1.35;;
45893;SDS011;31603;51.148;16.932;2023-07-31T10:54:48;4.07;;;1.50;;
45893;SDS011;31603;51.148;16.932;2023-07-31T10:57:20;4.25;;;1.58;;
45893;SDS011;31603;51.148;16.932;2023-07-31T10:59:47;3.42;;;1.60;;
45893;SDS011;31603;51.148;16.932;2023-07-31T11:02:23;3.90;;;1.60;;
45893;SDS011;31603;51.148;16.932;2023-07-31T11:10:32;4.57;;;1.48;;
45893;SDS011;31603;51.148;16.932;2023-07-31T11:12:58;5.40;;;1.70;;
45893;SDS011;31603;51.148;16.932;2023-07-31T11:15:26;3.90;;;1.50;;
45893;SDS011;31603;51.148;16.932;2023-07-31T11:17:52;6.88;;;1.75;;
45893;SDS011;31603;51.148;16.932;2023-07-31T11:20:18;4.95;;;1.60;;
45893;SDS011;31603;51.148;16.932;2023-07-31T11:22:45;3.67;;;1.73;;
45893;SDS011;31603;51.148;16.932;2023-07-31T11:25:11;5.25;;;2.10;;
45893;SDS011;31603;51.148;16.932;2023-07-31T11:27:39;5.85;;;1.73;;
45893;SDS011;31603;51.148;16.932;2023-07-31T11:30:07;2.72;;;1.73;;
45893;SDS011;31603;51.148;16.932;2023-07-31T11:32:33;3.60;;;1.65;;
45893;SDS011;31603;51.148;16.932;2023-07-31T11:35:00;2.95;;;2.00;;
45893;SDS011;31603;51.148;16.932;2023-07-31T11:37:38;2.35;;;1.85;;
45893;SDS011;31603;51.148;16.932;2023-07-31T11:40:04;3.08;;;1.80;;
45893;SDS011;31603;51.148;16.932;2023-07-31T11:42:31;2.80;;;1.60;;
45893;SDS011;31603;51.148;16.932;2023-07-31T11:44:58;4.32;;;1.90;;
45893;SDS011;31603;51.148;16.932;2023-07-31T11:47:27;3.80;;;1.95;;
45893;SDS011;31603;51.148;16.932;2023-07-31T11:49:54;4.22;;;1.77;;
45893;SDS011;31603;51.148;16.932;2023-07-31T11:52:20;3.33;;;1.88;;
45893;SDS011;31603;51.148;16.932;2023-07-31T11:54:48;4.63;;;1.90;;
45893;SDS011;31603;51.148;16.932;2023-07-31T11:57:14;3.42;;;2.05;;
45893;SDS011;31603;51.148;16.932;2023-07-31T11:59:41;2.72;;;1.60;;
45893;SDS011;31603;51.148;16.932;2023-07-31T12:02:09;4.78;;;2.00;;
45893;SDS011;31603;51.148;16.932;2023-07-31T12:04:35;2.00;;;1.60;;
45893;SDS011;31603;51.148;16.932;2023-07-31T12:07:02;3.42;;;1.60;;
45893;SDS011;31603;51.148;16.932;2023-07-31T12:09:28;3.20;;;2.30;;
45893;SDS011;31603;51.148;16.932;2023-07-31T12:11:54;4.47;;;1.80;;
45893;SDS011;31603;51.148;16.932;2023-07-31T12:14:21;2.70;;;1.60;;
45893;SDS011;31603;51.148;16.932;2023-07-31T12:16:48;2.47;;;1.75;;
45893;SDS011;31603;51.148;16.932;2023-07-31T12:19:20;5.45;;;1.90;;
45893;SDS011;31603;51.148;16.932;2023-07-31T12:21:46;4.00;;;1.70;;
45893;SDS011;31603;51.148;16.932;2023-07-31T12:24:13;3.70;;;1.80;;
45893;SDS011;31603;51.148;16.932;2023-07-31T12:26:39;3.95;;;2.47;;
45893;SDS011;31603;51.148;16.932;2023-07-31T12:29:05;2.30;;;1.48;;
45893;SDS011;31603;51.148;16.932;2023-07-31T12:31:33;3.92;;;2.00;;
45893;SDS011;31603;51.148;16.932;2023-07-31T12:33:59;5.10;;;1.98;;
45893;SDS011;31603;51.148;16.932;2023-07-31T12:36:27;4.15;;;1.77;;
45893;SDS011;31603;51.148;16.932;2023-07-31T12:38:55;5.32;;;1.80;;
45893;SDS011;31603;51.148;16.932;2023-07-31T12:41:23;4.65;;;2.15;;
45893;SDS011;31603;51.148;16.932;2023-07-31T12:43:49;4.90;;;2.58;;
45893;SDS011;31603;51.148;16.932;2023-07-31T12:46:15;4.65;;;1.80;;
45893;SDS011;31603;51.148;16.932;2023-07-31T12:48:42;2.97;;;2.05;;
45893;SDS011;31603;51.148;16.932;2023-07-31T12:51:08;5.00;;;2.60;;
45893;SDS011;31603;51.148;16.932;2023-07-31T12:53:36;4.22;;;2.20;;
45893;SDS011;31603;51.148;16.932;2023-07-31T12:56:02;4.05;;;2.20;;
45893;SDS011;31603;51.148;16.932;2023-07-31T12:58:28;4.10;;;1.98;;
45893;SDS011;31603;51.148;16.932;2023-07-31T13:00:55;6.22;;;2.35;;
45893;SDS011;31603;51.148;16.932;2023-07-31T13:03:21;3.53;;;2.05;;
45893;SDS011;31603;51.148;16.932;2023-07-31T13:05:47;3.70;;;1.98;;
45893;SDS011;31603;51.148;16.932;2023-07-31T13:08:14;3.72;;;2.20;;
45893;SDS011;31603;51.148;16.932;2023-07-31T13:10:42;3.45;;;1.90;;
45893;SDS011;31603;51.148;16.932;2023-07-31T13:13:08;5.25;;;2.38;;
45893;SDS011;31603;51.148;16.932;2023-07-31T13:15:35;5.75;;;1.90;;
45893;SDS011;31603;51.148;16.932;2023-07-31T13:18:01;3.50;;;2.22;;
45893;SDS011;31603;51.148;16.932;2023-07-31T13:20:27;4.30;;;2.15;;
45893;SDS011;31603;51.148;16.932;2023-07-31T13:22:53;4.00;;;2.25;;
45893;SDS011;31603;51.148;16.932;2023-07-31T13:25:20;3.85;;;2.40;;
45893;SDS011;31603;51.148;16.932;2023-07-31T13:27:47;3.58;;;2.17;;
45893;SDS011;31603;51.148;16.932;2023-07-31T13:30:13;5.53;;;2.53;;
45893;SDS011;31603;51.148;16.932;2023-07-31T13:32:40;6.68;;;2.40;;
45893;SDS011;31603;51.148;16.932;2023-07-31T13:35:06;5.93;;;2.28;;
45893;SDS011;31603;51.148;16.932;2023-07-31T13:37:33;3.20;;;2.08;;
45893;SDS011;31603;51.148;16.932;2023-07-31T13:39:59;3.60;;;2.53;;
45893;SDS011;31603;51.148;16.932;2023-07-31T13:42:26;4.28;;;2.20;;
45893;SDS011;31603;51.148;16.932;2023-07-31T13:44:56;6.13;;;2.50;;
45893;SDS011;31603;51.148;16.932;2023-07-31T13:47:22;3.08;;;2.00;;
45893;SDS011;31603;51.148;16.932;2023-07-31T13:49:50;5.15;;;2.30;;
45893;SDS011;31603;51.148;16.932;2023-07-31T13:52:16;5.93;;;2.50;;
45893;SDS011;31603;51.148;16.932;2023-07-31T13:54:42;4.93;;;2.15;;
45893;SDS011;31603;51.148;16.932;2023-07-31T13:57:08;7.55;;;2.67;;
45893;SDS011;31603;51.148;16.932;2023-07-31T13:59:35;5.75;;;2.17;;
45893;SDS011;31603;51.148;16.932;2023-07-31T14:02:03;4.05;;;2.42;;
45893;SDS011;31603;51.148;16.932;2023-07-31T14:04:29;5.60;;;2.22;;
45893;SDS011;31603;51.148;16.932;2023-07-31T14:06:55;3.47;;;2.00;;
45893;SDS011;31603;51.148;16.932;2023-07-31T14:09:22;3.70;;;2.13;;
45893;SDS011;31603;51.148;16.932;2023-07-31T14:11:49;3.42;;;2.30;;
45893;SDS011;31603;51.148;16.932;2023-07-31T14:14:15;4.00;;;2.17;;
45893;SDS011;31603;51.148;16.932;2023-07-31T14:16:43;7.50;;;2.92;;
45893;SDS011;31603;51.148;16.932;2023-07-31T14:19:10;4.82;;;2.33;;
45893;SDS011;31603;51.148;16.932;2023-07-31T14:21:36;2.72;;;1.95;;
45893;SDS011;31603;51.148;16.932;2023-07-31T14:24:03;2.67;;;1.80;;
45893;SDS011;31603;51.148;16.932;2023-07-31T14:26:29;7.90;;;2.00;;
45893;SDS011;31603;51.148;16.932;2023-07-31T14:28:55;3.25;;;2.00;;
45893;SDS011;31603;51.148;16.932;2023-07-31T14:31:22;3.10;;;2.00;;
45893;SDS011;31603;51.148;16.932;2023-07-31T14:33:48;2.08;;;1.60;;
45893;SDS011;31603;51.148;16.932;2023-07-31T14:36:15;3.83;;;1.90;;
45893;SDS011;31603;51.148;16.932;2023-07-31T14:38:42;2.92;;;1.73;;